createdAt,value
2023-05-02T00:02:27.442Z,8.94
2023-05-02T00:07:28.401Z,8.89
2023-05-02T00:12:29.246Z,8.85
2023-05-02T00:17:30.269Z,8.75
2023-05-02T00:22:31.483Z,8.75
2023-05-02T00:27:32.543Z,8.81
2023-05-02T00:32:33.438Z,8.78
2023-05-02T00:37:34.497Z,8.76
2023-05-02T00:42:35.644Z,8.78
2023-05-02T00:47:37.038Z,8.87
2023-05-02T00:52:37.943Z,8.86
2023-05-02T00:57:38.773Z,8.91
2023-05-02T01:02:50.711Z,8.92
2023-05-02T01:08:18.439Z,8.94
2023-05-02T01:13:27.702Z,8.94
2023-05-02T01:18:32.776Z,8.90
2023-05-02T01:23:52.409Z,8.84
2023-05-02T01:29:01.637Z,8.70
2023-05-02T01:34:04.895Z,8.50
2023-05-02T01:39:07.297Z,8.53
2023-05-02T01:44:10.202Z,8.58
2023-05-02T01:49:11.124Z,8.63
2023-05-02T01:54:13.458Z,8.64
2023-05-02T01:59:18.845Z,8.63
2023-05-02T02:04:21.293Z,8.63
2023-05-02T02:09:22.106Z,8.41
2023-05-02T02:14:27.258Z,8.38
2023-05-02T02:19:29.812Z,8.15
2023-05-02T02:24:32.089Z,7.95
2023-05-02T02:29:32.909Z,7.87
2023-05-02T02:34:33.718Z,7.82
2023-05-02T02:40:12.838Z,7.80
2023-05-02T02:45:37.613Z,7.74
2023-05-02T02:51:00.286Z,7.88
2023-05-02T02:56:15.170Z,7.98
2023-05-02T03:01:21.237Z,8.02
2023-05-02T03:06:23.642Z,8.10
2023-05-02T03:11:27.662Z,8.07
2023-05-02T03:16:39.936Z,8.13
2023-05-02T03:21:42.670Z,8.19
2023-05-02T03:26:49.695Z,8.26
2023-05-02T03:31:51.797Z,8.38
2023-05-02T03:36:53.961Z,8.45
2023-05-02T03:41:55.094Z,8.47
2023-05-02T03:46:56.335Z,8.40
2023-05-02T03:51:58.788Z,8.44
2023-05-02T03:57:01.149Z,8.49
2023-05-02T04:02:03.679Z,8.58
2023-05-02T04:07:17.564Z,8.71
2023-05-02T04:12:19.715Z,8.79
2023-05-02T04:17:23.498Z,8.82
2023-05-02T04:22:25.093Z,9.02
2023-05-02T04:27:35.938Z,8.89
2023-05-02T04:32:37.216Z,8.85
2023-05-02T04:37:38.772Z,8.86
2023-05-02T04:42:40.363Z,8.80
2023-05-02T04:47:48.715Z,8.91
2023-05-02T04:52:50.004Z,8.93
2023-05-02T04:57:51.458Z,8.97
2023-05-02T05:02:52.854Z,9.13
2023-05-02T05:07:54.263Z,9.27
2023-05-02T05:12:57.749Z,9.18
2023-05-02T05:17:58.990Z,9.13
2023-05-02T05:23:00.125Z,9.04
2023-05-02T05:28:02.217Z,9.08
2023-05-02T05:33:04.603Z,9.01
2023-05-02T05:38:06.295Z,8.96
2023-05-02T05:43:10.240Z,8.97
2023-05-02T05:48:12.961Z,9.06
2023-05-02T05:53:18.685Z,9.26
2023-05-02T05:58:21.975Z,9.50
2023-05-02T06:03:24.458Z,9.82
2023-05-02T06:08:25.450Z,10.08
2023-05-02T06:13:27.889Z,10.55
2023-05-02T06:18:29.567Z,11.09
2023-05-02T06:23:30.747Z,11.24
2023-05-02T06:28:31.660Z,11.25
2023-05-02T06:33:33.663Z,11.39
2023-05-02T06:38:34.401Z,11.39
2023-05-02T06:43:35.186Z,11.20
2023-05-02T06:48:36.060Z,11.09
2023-05-02T06:53:36.901Z,11.21
2023-05-02T06:58:37.712Z,11.49
2023-05-02T07:09:02.991Z,10.78
2023-05-02T07:14:04.276Z,10.65
2023-05-02T07:19:06.019Z,10.63
2023-05-02T07:24:06.794Z,10.45
2023-05-02T07:29:09.064Z,10.27
2023-05-02T07:34:09.825Z,10.30
2023-05-02T07:39:10.667Z,10.33
2023-05-02T07:44:11.473Z,10.27
2023-05-02T07:49:13.171Z,10.16
2023-05-02T07:54:18.496Z,10.06
2023-05-02T07:59:19.340Z,9.97
2023-05-02T08:04:20.208Z,9.89
2023-05-02T08:09:21.212Z,10.47
2023-05-02T08:14:22.089Z,11.11
2023-05-02T08:19:23.267Z,11.66
2023-05-02T08:24:24.137Z,12.12
2023-05-02T08:29:24.971Z,12.64
2023-05-02T08:34:25.953Z,12.76
2023-05-02T08:39:26.804Z,12.45
2023-05-02T08:44:27.735Z,12.63
2023-05-02T08:49:31.981Z,12.45
2023-05-02T08:54:33.531Z,12.35
2023-05-02T08:59:34.587Z,12.77
2023-05-02T09:04:40.484Z,13.08
2023-05-02T09:09:41.405Z,13.20
2023-05-02T09:14:44.526Z,12.99
2023-05-02T09:19:45.464Z,12.82
2023-05-02T09:24:54.401Z,12.87
2023-05-02T09:30:37.483Z,12.95
2023-05-02T09:35:54.031Z,12.91
2023-05-02T09:40:58.311Z,12.94
2023-05-02T09:46:09.658Z,13.17
2023-05-02T09:51:17.123Z,13.02
2023-05-02T09:56:18.068Z,12.86
2023-05-02T10:01:19.650Z,12.93
2023-05-02T10:06:20.821Z,13.75
2023-05-02T10:11:22.208Z,14.33
2023-05-02T10:16:29.298Z,13.83
2023-05-02T10:21:31.664Z,13.41
2023-05-02T10:26:34.147Z,13.27
2023-05-02T10:31:38.860Z,13.30
2023-05-02T10:36:39.885Z,14.01
2023-05-02T10:41:42.247Z,15.46
2023-05-02T10:46:44.108Z,15.68
2023-05-02T10:51:45.141Z,14.78
2023-05-02T10:57:06.846Z,14.48
2023-05-02T11:05:58.726Z,14.31
2023-05-02T11:11:38.147Z,15.51
2023-05-02T11:23:27.392Z,15.17
2023-05-02T11:28:42.963Z,14.36
2023-05-02T11:33:55.424Z,13.90
2023-05-02T11:38:56.296Z,14.22
2023-05-02T11:44:03.283Z,15.00
2023-05-02T11:49:06.888Z,14.71
2023-05-02T11:54:17.843Z,14.41
2023-05-02T11:59:18.749Z,14.05
2023-05-02T12:04:23.136Z,13.90
2023-05-02T12:09:24.082Z,13.48
2023-05-02T12:14:29.324Z,13.56
2023-05-02T12:19:30.328Z,13.58
2023-05-02T12:24:31.257Z,13.77
2023-05-02T12:29:42.690Z,13.68
2023-05-02T12:34:43.543Z,13.67
2023-05-02T12:39:44.344Z,13.87
2023-05-02T12:44:46.646Z,13.84
2023-05-02T12:50:06.012Z,14.32
2023-05-02T12:55:23.743Z,14.86
2023-05-02T13:00:25.096Z,16.34
2023-05-02T13:05:26.057Z,16.49
2023-05-02T13:10:27.410Z,15.49
2023-05-02T13:15:28.331Z,14.94
2023-05-02T13:20:29.146Z,14.91
2023-05-02T13:25:30.434Z,16.14
2023-05-02T13:30:31.582Z,15.81
2023-05-02T13:35:34.039Z,15.34
2023-05-02T13:40:36.123Z,15.44
2023-05-02T13:45:36.909Z,15.42
2023-05-02T13:50:38.256Z,14.99
2023-05-02T13:55:39.018Z,15.17
2023-05-02T14:00:39.877Z,15.19
2023-05-02T14:05:42.936Z,15.04
2023-05-02T14:10:43.985Z,14.22
2023-05-02T14:15:44.813Z,13.86
2023-05-02T14:20:46.182Z,13.80
2023-05-02T14:25:46.990Z,14.23
2023-05-02T14:30:48.513Z,14.86
2023-05-02T14:35:49.601Z,14.83
2023-05-02T14:40:50.626Z,14.70
2023-05-02T14:45:51.382Z,14.75
2023-05-02T14:50:53.066Z,14.38
2023-05-02T14:55:53.818Z,14.39
2023-05-02T15:00:54.947Z,14.64
2023-05-02T15:05:55.834Z,14.70
2023-05-02T15:10:57.852Z,14.82
2023-05-02T15:15:58.811Z,14.80
2023-05-02T15:20:59.802Z,14.86
2023-05-02T15:26:00.570Z,14.94
2023-05-02T15:31:01.544Z,14.04
2023-05-02T15:36:02.395Z,13.94
2023-05-02T15:41:03.364Z,13.85
2023-05-02T15:46:04.292Z,13.77
2023-05-02T15:51:05.750Z,13.83
2023-05-02T15:56:13.419Z,13.21
2023-05-02T16:01:14.399Z,13.28
2023-05-02T16:06:16.677Z,13.38
2023-05-02T16:11:17.791Z,13.38
2023-05-02T16:16:18.789Z,13.26
2023-05-02T16:21:19.833Z,13.21
2023-05-02T16:26:20.698Z,13.09
2023-05-02T16:31:22.336Z,12.96
2023-05-02T16:36:24.111Z,13.33
2023-05-02T16:41:24.966Z,13.04
2023-05-02T16:46:26.490Z,12.98
2023-05-02T16:51:27.414Z,12.99
2023-05-02T16:56:28.567Z,12.52
2023-05-02T17:01:29.667Z,12.34
2023-05-02T17:06:31.388Z,12.26
2023-05-02T17:11:32.273Z,12.11
2023-05-02T17:16:33.093Z,12.06
2023-05-02T17:21:34.957Z,12.00
2023-05-02T17:26:35.792Z,11.95
2023-05-02T17:31:37.239Z,11.81
2023-05-02T17:36:41.420Z,11.67
2023-05-02T17:41:42.141Z,11.64
2023-05-02T17:46:43.437Z,11.53
2023-05-02T17:51:44.411Z,11.40
2023-05-02T17:56:45.496Z,11.25
2023-05-02T18:01:46.673Z,11.00
2023-05-02T18:06:47.664Z,10.85
2023-05-02T18:11:48.582Z,10.66
2023-05-02T18:16:49.412Z,10.44
2023-05-02T18:21:50.595Z,10.24
2023-05-02T18:26:51.894Z,10.09
2023-05-02T18:31:53.429Z,9.94
2023-05-02T18:36:54.221Z,9.84
2023-05-02T18:41:55.022Z,9.72
2023-05-02T18:46:57.074Z,9.62
2023-05-02T18:51:58.046Z,9.44
2023-05-02T18:56:58.803Z,9.29
2023-05-02T19:02:00.285Z,9.27
2023-05-02T19:07:01.121Z,9.16
2023-05-02T19:12:01.933Z,9.11
2023-05-02T19:17:04.938Z,9.10
2023-05-02T19:22:05.850Z,9.03
2023-05-02T19:27:09.637Z,8.96
2023-05-02T19:32:10.488Z,8.97
2023-05-02T19:37:11.729Z,8.78
2023-05-02T19:42:12.503Z,8.35
2023-05-02T19:47:13.747Z,8.56
2023-05-02T19:52:14.614Z,8.32
2023-05-02T19:57:17.073Z,8.32
2023-05-02T20:02:17.927Z,8.15
2023-05-02T20:07:18.777Z,7.98
2023-05-02T20:12:19.545Z,8.22
2023-05-02T20:17:20.441Z,8.08
2023-05-02T20:22:21.309Z,7.90
2023-05-02T20:27:22.219Z,7.63
2023-05-02T20:32:23.359Z,7.72
2023-05-02T20:37:24.886Z,7.58
2023-05-02T20:42:26.043Z,7.33
2023-05-02T20:47:28.430Z,7.18
2023-05-02T20:52:29.224Z,7.00
2023-05-02T20:57:30.228Z,7.08
2023-05-02T21:02:31.363Z,7.06
2023-05-02T21:07:32.283Z,7.09
2023-05-02T21:12:33.041Z,6.76
2023-05-02T21:17:33.974Z,6.61
2023-05-02T21:22:34.865Z,6.58
2023-05-02T21:27:35.816Z,6.38
2023-05-02T21:32:36.796Z,6.06
2023-05-02T21:37:37.782Z,6.09
2023-05-02T21:42:38.576Z,6.30
2023-05-02T21:47:39.438Z,6.44
2023-05-02T21:52:40.254Z,6.48
2023-05-02T21:57:41.051Z,6.33
2023-05-02T22:02:42.050Z,6.40
2023-05-02T22:07:42.936Z,6.39
2023-05-02T22:12:43.798Z,6.14
2023-05-02T22:17:45.396Z,6.21
2023-05-02T22:22:46.241Z,6.15
2023-05-02T22:27:47.033Z,6.21
2023-05-02T22:32:48.038Z,6.00
2023-05-02T22:37:49.180Z,5.93
2023-05-02T22:42:49.958Z,5.90
2023-05-02T22:47:51.461Z,5.77
2023-05-02T22:52:56.103Z,5.67
2023-05-02T22:57:57.569Z,5.51
2023-05-02T23:02:59.118Z,5.46
2023-05-02T23:07:59.981Z,5.47
2023-05-02T23:13:00.826Z,5.58
2023-05-02T23:18:01.647Z,5.46
2023-05-02T23:23:02.890Z,5.35
2023-05-02T23:28:03.994Z,5.33
2023-05-02T23:33:05.208Z,5.38
2023-05-02T23:38:07.140Z,5.42
2023-05-02T23:43:08.207Z,5.37
2023-05-02T23:48:09.033Z,5.44
2023-05-02T23:53:09.936Z,5.41
2023-05-02T23:58:10.745Z,5.36
